createdAt,value
2022-12-24T00:01:03.309Z,10.20
2022-12-24T00:03:30.171Z,10.10
2022-12-24T00:05:57.054Z,10.10
2022-12-24T00:08:23.855Z,10.10
2022-12-24T00:10:54.098Z,10.00
2022-12-24T00:13:23.653Z,9.90
2022-12-24T00:15:50.584Z,9.90
2022-12-24T00:18:17.600Z,9.90
2022-12-24T00:20:48.526Z,9.80
2022-12-24T00:23:16.581Z,9.70
2022-12-24T00:25:43.684Z,9.70
2022-12-24T00:28:10.730Z,9.70
2022-12-24T00:30:41.967Z,9.70
2022-12-24T00:33:08.881Z,9.70
2022-12-24T00:35:37.363Z,9.60
2022-12-24T00:38:04.652Z,9.60
2022-12-24T00:40:32.063Z,9.60
2022-12-24T00:42:59.145Z,9.60
2022-12-24T00:45:27.878Z,9.60
2022-12-24T00:47:55.097Z,9.60
2022-12-24T00:50:21.842Z,9.70
2022-12-24T00:52:48.518Z,9.80
2022-12-24T00:55:15.559Z,9.90
2022-12-24T00:57:42.447Z,9.90
2022-12-24T01:00:09.666Z,9.90
2022-12-24T01:02:36.492Z,10.00
2022-12-24T01:05:12.570Z,9.90
2022-12-24T01:07:43.863Z,9.90
2022-12-24T01:10:13.266Z,9.90
2022-12-24T01:12:40.615Z,9.90
2022-12-24T01:15:08.253Z,9.80
2022-12-24T01:17:35.560Z,9.80
2022-12-24T01:20:03.317Z,9.70
2022-12-24T01:22:29.982Z,9.80
2022-12-24T01:24:56.704Z,9.70
2022-12-24T01:27:23.610Z,9.70
2022-12-24T01:29:50.312Z,9.80
2022-12-24T01:32:17.139Z,9.60
2022-12-24T01:34:43.965Z,9.50
2022-12-24T01:37:10.705Z,9.60
2022-12-24T01:39:37.490Z,9.60
2022-12-24T01:42:37.559Z,9.60
2022-12-24T01:45:39.755Z,9.50
2022-12-24T01:48:15.890Z,9.40
2022-12-24T01:50:43.051Z,9.40
2022-12-24T01:53:10.615Z,9.40
2022-12-24T01:55:37.327Z,9.40
2022-12-24T01:58:06.713Z,9.30
2022-12-24T02:00:33.523Z,9.30
2022-12-24T02:03:00.659Z,9.30
2022-12-24T02:05:42.874Z,9.30
2022-12-24T02:08:09.870Z,9.20
2022-12-24T02:10:36.699Z,9.20
2022-12-24T02:13:04.157Z,9.10
2022-12-24T02:16:20.923Z,9.10
2022-12-24T02:19:15.575Z,9.10
2022-12-24T02:21:51.876Z,9.10
2022-12-24T02:24:27.547Z,9.10
2022-12-24T02:27:15.828Z,9.10
2022-12-24T02:30:05.773Z,9.10
2022-12-24T02:33:13.493Z,9.10
2022-12-24T02:35:52.803Z,9.00
2022-12-24T02:38:29.021Z,9.10
2022-12-24T02:41:02.046Z,9.00
2022-12-24T02:43:37.009Z,9.10
2022-12-24T02:46:18.388Z,9.20
2022-12-24T02:48:48.065Z,9.20
2022-12-24T02:51:15.249Z,9.30
2022-12-24T02:53:42.187Z,9.30
2022-12-24T02:56:59.388Z,9.40
2022-12-24T02:59:37.981Z,9.40
2022-12-24T03:02:32.954Z,9.50
2022-12-24T03:05:28.187Z,9.60
2022-12-24T03:08:22.066Z,9.70
2022-12-24T03:11:03.445Z,9.80
2022-12-24T03:13:30.183Z,9.80
2022-12-24T03:15:57.040Z,9.90
2022-12-24T03:18:26.615Z,9.90
2022-12-24T03:21:23.882Z,9.90
2022-12-24T03:23:50.738Z,9.90
2022-12-24T03:26:19.123Z,9.90
2022-12-24T03:28:46.989Z,9.80
2022-12-24T03:31:14.643Z,9.70
2022-12-24T03:33:41.606Z,9.70
2022-12-24T03:36:09.193Z,9.70
2022-12-24T03:38:36.011Z,9.70
2022-12-24T03:41:03.619Z,9.70
2022-12-24T03:43:30.664Z,9.70
2022-12-24T03:45:57.599Z,9.70
2022-12-24T03:48:29.177Z,9.70
2022-12-24T03:50:59.339Z,9.70
2022-12-24T03:53:26.053Z,9.70
2022-12-24T03:55:52.718Z,9.70
2022-12-24T03:58:19.444Z,9.80
2022-12-24T04:00:46.141Z,9.80
2022-12-24T04:03:12.880Z,9.90
2022-12-24T04:05:39.580Z,9.90
2022-12-24T04:08:06.300Z,9.90
2022-12-24T04:10:33.024Z,9.90
2022-12-24T04:12:59.740Z,9.90
2022-12-24T04:15:26.597Z,9.90
2022-12-24T04:17:53.289Z,9.90
2022-12-24T04:20:19.994Z,9.90
2022-12-24T04:22:46.679Z,9.90
2022-12-24T04:25:13.356Z,9.90
2022-12-24T04:27:40.058Z,9.90
2022-12-24T04:30:07.447Z,9.80
2022-12-24T04:32:34.103Z,9.80
2022-12-24T04:35:00.771Z,9.80
2022-12-24T04:40:00.522Z,9.80
2022-12-24T04:42:27.262Z,9.90
2022-12-24T04:44:53.921Z,9.90
2022-12-24T04:47:20.640Z,9.90
2022-12-24T04:49:47.315Z,9.90
2022-12-24T04:52:14.001Z,9.90
2022-12-24T04:54:40.754Z,9.90
2022-12-24T04:57:07.433Z,9.80
2022-12-24T04:59:34.141Z,9.80
2022-12-24T05:02:00.913Z,9.80
2022-12-24T05:04:27.795Z,9.80
2022-12-24T05:06:54.553Z,9.80
2022-12-24T05:09:21.286Z,9.80
2022-12-24T05:11:47.987Z,9.80
2022-12-24T05:14:14.669Z,9.90
2022-12-24T05:16:41.501Z,9.90
2022-12-24T05:19:08.387Z,9.80
2022-12-24T05:21:35.390Z,9.80
2022-12-24T05:24:20.659Z,9.80
2022-12-24T05:26:54.092Z,9.80
2022-12-24T05:29:20.848Z,9.80
2022-12-24T05:31:47.664Z,9.80
2022-12-24T05:34:16.118Z,9.90
2022-12-24T05:36:44.207Z,9.90
2022-12-24T05:39:16.263Z,9.90
2022-12-24T05:41:43.351Z,9.90
2022-12-24T05:44:10.171Z,9.80
2022-12-24T05:46:37.092Z,9.90
2022-12-24T05:49:03.880Z,9.90
2022-12-24T05:51:30.567Z,9.80
2022-12-24T05:53:57.273Z,9.70
2022-12-24T05:56:25.215Z,9.70
2022-12-24T05:58:53.724Z,9.70
2022-12-24T06:01:22.083Z,9.70
2022-12-24T06:03:49.959Z,9.70
2022-12-24T06:06:26.013Z,9.70
2022-12-24T06:08:54.345Z,9.70
2022-12-24T06:11:30.220Z,9.70
2022-12-24T06:13:57.289Z,9.80
2022-12-24T06:16:25.374Z,9.80
2022-12-24T06:18:52.266Z,9.90
2022-12-24T06:21:19.921Z,9.90
2022-12-24T06:23:47.599Z,9.80
2022-12-24T06:26:17.949Z,9.80
2022-12-24T06:28:45.919Z,9.80
2022-12-24T06:31:15.819Z,9.70
2022-12-24T06:33:42.943Z,9.70
2022-12-24T06:36:17.581Z,9.60
2022-12-24T06:38:46.027Z,9.60
2022-12-24T06:41:12.962Z,9.50
2022-12-24T06:43:40.243Z,9.50
2022-12-24T06:46:07.000Z,9.40
2022-12-24T06:48:33.744Z,9.50
2022-12-24T06:51:03.297Z,9.50
2022-12-24T06:53:30.996Z,9.50
2022-12-24T06:56:04.591Z,9.40
2022-12-24T06:58:31.465Z,9.50
2022-12-24T07:00:58.259Z,9.50
2022-12-24T07:03:25.096Z,9.50
2022-12-24T07:05:51.916Z,9.40
2022-12-24T07:08:18.623Z,9.30
2022-12-24T07:10:50.565Z,9.30
2022-12-24T07:13:20.771Z,9.30
2022-12-24T07:15:47.479Z,9.30
2022-12-24T07:18:14.176Z,9.30
2022-12-24T07:20:42.834Z,9.20
2022-12-24T07:23:09.520Z,9.20
2022-12-24T07:25:36.185Z,9.30
2022-12-24T07:28:02.902Z,9.20
2022-12-24T07:30:29.674Z,9.30
2022-12-24T07:32:56.475Z,9.30
2022-12-24T07:35:23.159Z,9.30
2022-12-24T07:37:49.846Z,9.20
2022-12-24T07:40:16.607Z,9.30
2022-12-24T07:42:43.260Z,9.30
2022-12-24T07:45:10.463Z,9.30
2022-12-24T07:47:37.264Z,9.30
2022-12-24T07:50:05.923Z,9.30
2022-12-24T07:52:32.751Z,9.40
2022-12-24T07:54:59.507Z,9.40
2022-12-24T07:57:26.215Z,9.40
2022-12-24T07:59:52.890Z,9.50
2022-12-24T08:02:19.765Z,9.50
2022-12-24T08:04:46.586Z,9.60
2022-12-24T08:07:13.330Z,9.50
2022-12-24T08:09:40.056Z,9.60
2022-12-24T08:12:07.129Z,9.60
2022-12-24T08:14:33.830Z,9.70
2022-12-24T08:17:00.526Z,9.70
2022-12-24T08:19:27.235Z,9.80
2022-12-24T08:21:53.938Z,9.90
2022-12-24T08:24:20.668Z,10.00
2022-12-24T08:26:47.554Z,10.00
2022-12-24T08:29:14.269Z,10.00
2022-12-24T08:31:42.025Z,10.10
2022-12-24T08:34:09.118Z,10.00
2022-12-24T08:36:36.007Z,9.90
2022-12-24T08:39:03.745Z,10.00
2022-12-24T08:41:33.297Z,10.00
2022-12-24T08:44:00.052Z,10.00
2022-12-24T08:46:27.103Z,10.10
2022-12-24T08:48:53.956Z,10.20
2022-12-24T08:51:20.800Z,10.20
2022-12-24T08:53:47.492Z,10.20
2022-12-24T08:56:14.265Z,10.20
2022-12-24T08:58:41.490Z,10.20
2022-12-24T09:01:14.565Z,10.20
2022-12-24T09:03:41.532Z,10.20
2022-12-24T09:06:09.279Z,10.20
2022-12-24T09:08:36.496Z,10.20
2022-12-24T09:11:11.717Z,10.20
2022-12-24T09:13:39.195Z,10.20
2022-12-24T09:16:06.399Z,10.30
2022-12-24T09:18:33.886Z,10.30
2022-12-24T09:21:06.657Z,10.30
2022-12-24T09:23:36.309Z,10.30
2022-12-24T09:26:07.053Z,10.30
2022-12-24T09:28:34.107Z,10.30
2022-12-24T09:31:03.126Z,10.30
2022-12-24T09:33:32.016Z,10.40
2022-12-24T09:35:58.886Z,10.30
2022-12-24T09:38:25.882Z,10.30
2022-12-24T09:40:54.432Z,10.40
2022-12-24T09:43:23.605Z,10.50
2022-12-24T09:46:06.623Z,10.60
2022-12-24T09:48:37.174Z,10.70
2022-12-24T09:51:07.058Z,10.70
2022-12-24T09:53:36.498Z,10.80
2022-12-24T09:56:32.269Z,10.80
2022-12-24T09:59:01.202Z,10.90
2022-12-24T10:01:31.413Z,11.00
2022-12-24T10:04:05.222Z,11.00
2022-12-24T10:07:10.089Z,11.10
2022-12-24T10:10:11.305Z,11.00
2022-12-24T10:12:53.111Z,11.00
2022-12-24T10:15:25.862Z,10.90
2022-12-24T10:17:59.721Z,10.90
2022-12-24T10:20:29.431Z,10.80
2022-12-24T10:23:19.570Z,10.80
2022-12-24T10:25:58.231Z,10.90
2022-12-24T10:28:34.123Z,10.90
2022-12-24T10:31:04.694Z,10.90
2022-12-24T10:33:44.600Z,10.90
2022-12-24T10:36:18.618Z,10.90
2022-12-24T10:38:46.260Z,10.90
2022-12-24T10:41:15.103Z,10.90
2022-12-24T10:43:45.078Z,10.90
2022-12-24T10:46:22.987Z,10.90
2022-12-24T10:48:59.029Z,10.90
2022-12-24T10:51:47.112Z,11.00
2022-12-24T10:54:26.565Z,11.10
2022-12-24T10:57:00.170Z,11.10
2022-12-24T10:59:31.871Z,11.10
2022-12-24T11:02:00.424Z,11.10
2022-12-24T11:04:32.765Z,11.20
2022-12-24T11:07:06.184Z,11.10
2022-12-24T11:09:36.238Z,11.20
2022-12-24T11:12:09.372Z,11.20
2022-12-24T11:14:39.968Z,11.20
2022-12-24T11:17:06.984Z,11.20
2022-12-24T11:19:40.188Z,11.20
2022-12-24T11:22:37.566Z,11.30
2022-12-24T11:25:22.474Z,11.40
2022-12-24T11:27:51.790Z,11.50
2022-12-24T11:30:33.309Z,11.60
2022-12-24T11:33:03.370Z,11.60
2022-12-24T11:35:33.025Z,11.70
2022-12-24T11:38:03.167Z,11.70
2022-12-24T11:40:39.999Z,11.70
2022-12-24T11:43:14.955Z,11.70
2022-12-24T11:45:55.864Z,11.60
2022-12-24T11:48:29.827Z,11.60
2022-12-24T11:51:01.645Z,11.70
2022-12-24T11:53:49.900Z,11.70
2022-12-24T11:56:25.653Z,11.80
2022-12-24T11:58:58.975Z,11.90
2022-12-24T12:01:32.593Z,11.90
2022-12-24T12:04:22.447Z,12.00
2022-12-24T12:07:00.644Z,12.10
2022-12-24T12:09:50.779Z,12.20
2022-12-24T12:12:29.533Z,12.40
2022-12-24T12:15:05.083Z,12.50
2022-12-24T12:17:43.938Z,12.60
2022-12-24T12:20:48.063Z,12.70
2022-12-24T12:23:20.603Z,12.80
2022-12-24T12:26:00.604Z,12.80
2022-12-24T12:29:00.965Z,12.80
2022-12-24T12:31:30.541Z,12.70
2022-12-24T12:34:05.316Z,12.70
2022-12-24T12:36:37.770Z,12.60
2022-12-24T12:39:04.861Z,12.60
2022-12-24T12:41:34.400Z,12.50
2022-12-24T12:44:06.948Z,12.40
2022-12-24T12:46:48.691Z,12.50
2022-12-24T12:50:09.040Z,12.60
2022-12-24T12:52:44.738Z,12.60
2022-12-24T12:55:11.437Z,12.60
2022-12-24T12:57:39.890Z,12.50
2022-12-24T13:00:13.182Z,12.60
2022-12-24T13:03:13.145Z,12.60
2022-12-24T13:05:56.453Z,12.60
2022-12-24T13:08:57.548Z,12.70
2022-12-24T13:11:24.198Z,12.60
2022-12-24T13:14:19.407Z,12.40
2022-12-24T13:17:15.504Z,12.30
2022-12-24T13:19:45.226Z,12.20
2022-12-24T13:22:17.706Z,12.00
2022-12-24T13:24:53.222Z,12.10
2022-12-24T13:27:34.822Z,12.10
2022-12-24T13:30:24.426Z,12.00
2022-12-24T13:32:53.619Z,11.90
2022-12-24T13:35:20.260Z,11.90
2022-12-24T13:37:48.520Z,11.80
2022-12-24T13:40:26.232Z,11.80
2022-12-24T13:42:58.842Z,11.90
2022-12-24T13:45:31.891Z,11.90
2022-12-24T13:48:01.531Z,11.80
2022-12-24T13:50:35.039Z,11.80
2022-12-24T13:53:02.228Z,11.80
2022-12-24T13:55:29.600Z,11.70
2022-12-24T13:58:05.448Z,11.60
2022-12-24T14:00:58.396Z,11.50
2022-12-24T14:03:31.471Z,11.50
2022-12-24T14:06:07.042Z,11.40
2022-12-24T14:08:48.562Z,11.30
2022-12-24T14:11:21.950Z,11.20
2022-12-24T14:13:48.687Z,11.10
2022-12-24T14:16:25.669Z,11.00
2022-12-24T14:19:15.074Z,11.10
2022-12-24T14:21:56.859Z,10.90
2022-12-24T14:24:32.892Z,10.90
2022-12-24T14:27:08.362Z,10.90
2022-12-24T14:29:50.095Z,10.90
2022-12-24T14:32:17.260Z,10.70
2022-12-24T14:34:44.684Z,10.60
2022-12-24T14:37:13.698Z,10.60
2022-12-24T14:39:48.435Z,10.50
2022-12-24T14:42:53.143Z,10.50
2022-12-24T14:45:29.244Z,10.40
2022-12-24T14:48:36.802Z,10.40
2022-12-24T14:51:18.237Z,10.40
2022-12-24T14:53:54.060Z,10.30
2022-12-24T14:56:22.632Z,10.20
2022-12-24T14:58:50.357Z,10.10
2022-12-24T15:01:36.070Z,10.10
2022-12-24T15:04:21.087Z,10.10
2022-12-24T15:06:52.664Z,10.00
2022-12-24T15:09:33.855Z,9.90
2022-12-24T15:12:04.602Z,9.90
2022-12-24T15:14:40.046Z,9.80
2022-12-24T15:17:08.490Z,9.80
2022-12-24T15:19:39.247Z,9.70
2022-12-24T15:22:11.628Z,9.60
2022-12-24T15:24:46.957Z,9.60
2022-12-24T15:27:17.327Z,9.50
2022-12-24T15:29:46.202Z,9.50
2022-12-24T15:32:15.497Z,9.40
2022-12-24T15:34:48.359Z,9.30
2022-12-24T15:39:55.696Z,9.10
2022-12-24T15:42:23.991Z,9.10
2022-12-24T15:45:21.656Z,9.00
2022-12-24T15:48:08.643Z,8.90
2022-12-24T15:50:38.083Z,8.70
2022-12-24T15:53:19.699Z,8.60
2022-12-24T15:56:07.947Z,8.50
2022-12-24T15:58:34.576Z,8.40
2022-12-24T16:01:13.165Z,8.40
2022-12-24T16:03:49.760Z,8.20
2022-12-24T16:06:16.646Z,8.10
2022-12-24T16:08:44.935Z,8.10
2022-12-24T16:11:40.855Z,7.90
2022-12-24T16:14:17.201Z,7.80
2022-12-24T16:16:47.915Z,7.80
2022-12-24T16:19:37.672Z,7.70
2022-12-24T16:22:25.433Z,7.60
2022-12-24T16:24:52.730Z,7.50
2022-12-24T16:27:19.532Z,7.40
2022-12-24T16:29:47.043Z,7.40
2022-12-24T16:32:35.474Z,7.40
2022-12-24T16:35:08.068Z,7.40
2022-12-24T16:37:35.259Z,7.40
2022-12-24T16:40:01.970Z,7.40
2022-12-24T16:42:47.495Z,7.50
2022-12-24T16:45:14.267Z,7.50
2022-12-24T16:47:43.096Z,7.50
2022-12-24T16:50:15.920Z,7.40
2022-12-24T16:52:42.645Z,7.30
2022-12-24T16:55:12.852Z,7.20
2022-12-24T16:57:40.510Z,7.10
2022-12-24T17:00:09.228Z,7.10
2022-12-24T17:02:36.211Z,7.10
2022-12-24T17:05:03.005Z,7.10
2022-12-24T17:07:29.672Z,7.10
2022-12-24T17:09:56.433Z,7.10
2022-12-24T17:12:23.304Z,7.10
2022-12-24T17:14:50.120Z,7.10
2022-12-24T17:17:24.882Z,7.10
2022-12-24T17:19:51.738Z,7.10
2022-12-24T17:22:18.476Z,7.00
2022-12-24T17:24:45.200Z,7.00
2022-12-24T17:27:12.210Z,7.00
2022-12-24T17:29:38.935Z,7.00
2022-12-24T17:32:06.025Z,7.00
2022-12-24T17:34:32.895Z,7.00
2022-12-24T17:36:59.584Z,7.00
2022-12-24T17:39:28.038Z,6.90
2022-12-24T17:41:55.091Z,6.90
2022-12-24T17:44:21.768Z,6.90
2022-12-24T17:46:48.612Z,6.90
2022-12-24T17:49:15.384Z,6.80
2022-12-24T17:51:45.703Z,6.80
2022-12-24T17:54:13.365Z,6.70
2022-12-24T17:56:40.216Z,6.70
2022-12-24T17:59:06.921Z,6.70
2022-12-24T18:01:33.822Z,6.70
2022-12-24T18:04:02.273Z,6.60
2022-12-24T18:06:29.350Z,6.60
2022-12-24T18:08:56.208Z,6.50
2022-12-24T18:11:27.664Z,6.60
2022-12-24T18:13:55.723Z,6.70
2022-12-24T18:16:34.998Z,6.60
2022-12-24T18:19:02.531Z,6.70
2022-12-24T18:21:32.505Z,6.70
2022-12-24T18:23:59.741Z,6.70
2022-12-24T18:26:28.626Z,6.60
2022-12-24T18:28:56.766Z,6.60
2022-12-24T18:31:24.553Z,6.60
2022-12-24T18:33:52.297Z,6.60
2022-12-24T18:36:20.376Z,6.50
2022-12-24T18:38:47.438Z,6.50
2022-12-24T18:41:17.145Z,6.60
2022-12-24T18:43:43.981Z,6.60
2022-12-24T18:46:16.151Z,6.60
2022-12-24T18:48:42.974Z,6.60
2022-12-24T18:51:10.216Z,6.60
2022-12-24T18:53:37.507Z,6.60
2022-12-24T18:56:08.522Z,6.60
2022-12-24T18:58:37.704Z,6.60
2022-12-24T19:01:11.828Z,6.50
2022-12-24T19:03:38.787Z,6.40
2022-12-24T19:06:05.803Z,6.50
2022-12-24T19:11:19.505Z,6.50
2022-12-24T19:13:47.964Z,6.50
2022-12-24T19:16:15.887Z,6.50
2022-12-24T19:18:42.726Z,6.50
2022-12-24T19:21:13.298Z,6.60
2022-12-24T19:23:40.048Z,6.60
2022-12-24T19:26:06.902Z,6.60
2022-12-24T19:28:33.860Z,6.70
2022-12-24T19:31:12.177Z,6.80
2022-12-24T19:33:42.837Z,6.80
2022-12-24T19:36:12.764Z,6.90
2022-12-24T19:38:40.021Z,7.00
2022-12-24T19:41:12.752Z,7.00
2022-12-24T19:43:43.712Z,7.10
2022-12-24T19:46:14.265Z,7.20
2022-12-24T19:48:42.319Z,7.20
2022-12-24T19:51:11.732Z,7.30
2022-12-24T19:53:39.180Z,7.30
2022-12-24T19:56:06.780Z,7.40
2022-12-24T19:58:33.674Z,7.50
2022-12-24T20:01:15.179Z,7.50
2022-12-24T20:03:43.654Z,7.50
2022-12-24T20:06:10.931Z,7.60
2022-12-24T20:08:38.878Z,7.70
2022-12-24T20:11:08.008Z,7.80
2022-12-24T20:13:35.907Z,7.70
2022-12-24T20:16:11.269Z,7.70
2022-12-24T20:18:38.139Z,7.70
2022-12-24T20:21:08.821Z,7.60
2022-12-24T20:23:38.414Z,7.70
2022-12-24T20:26:06.979Z,7.70
2022-12-24T20:28:36.297Z,7.90
2022-12-24T20:31:13.641Z,7.90
2022-12-24T20:33:42.065Z,7.90
2022-12-24T20:36:09.219Z,7.90
2022-12-24T20:38:36.906Z,7.80
2022-12-24T20:41:05.489Z,7.80
2022-12-24T20:43:37.306Z,7.80
2022-12-24T20:46:07.598Z,7.80
2022-12-24T20:48:35.431Z,7.80
2022-12-24T20:51:22.817Z,7.80
2022-12-24T20:53:52.480Z,7.80
2022-12-24T20:56:19.959Z,7.80
2022-12-24T20:58:47.218Z,7.70
2022-12-24T21:01:20.192Z,7.80
2022-12-24T21:03:47.356Z,7.90
2022-12-24T21:06:15.639Z,8.10
2022-12-24T21:08:42.916Z,8.20
2022-12-24T21:11:32.834Z,8.30
2022-12-24T21:14:02.066Z,8.40
2022-12-24T21:16:33.752Z,8.40
2022-12-24T21:19:00.814Z,8.50
2022-12-24T21:21:27.662Z,8.50
2022-12-24T21:23:54.512Z,8.50
2022-12-24T21:26:21.319Z,8.50
2022-12-24T21:28:49.021Z,8.40
2022-12-24T21:31:16.144Z,8.40
2022-12-24T21:33:42.990Z,8.40
2022-12-24T21:36:11.162Z,8.40
2022-12-24T21:38:37.852Z,8.30
2022-12-24T21:41:07.812Z,8.30
2022-12-24T21:43:35.822Z,8.40
2022-12-24T21:46:07.906Z,8.40
2022-12-24T21:48:53.700Z,8.50
2022-12-24T21:51:20.562Z,8.50
2022-12-24T21:54:05.672Z,8.40
2022-12-24T21:56:52.341Z,8.50
2022-12-24T21:59:24.722Z,8.50
2022-12-24T22:01:53.289Z,8.60
2022-12-24T22:04:20.163Z,8.60
2022-12-24T22:07:05.725Z,8.50
2022-12-24T22:09:51.163Z,8.60
2022-12-24T22:12:17.871Z,8.60
2022-12-24T22:14:44.750Z,8.60
2022-12-24T22:17:11.546Z,8.50
2022-12-24T22:19:38.243Z,8.50
2022-12-24T22:22:04.931Z,8.40
2022-12-24T22:24:31.645Z,8.40
2022-12-24T22:26:58.430Z,8.40
2022-12-24T22:29:25.348Z,8.30
2022-12-24T22:31:52.079Z,8.30
2022-12-24T22:34:18.884Z,8.20
2022-12-24T22:36:45.625Z,8.20
2022-12-24T22:39:12.435Z,8.10
2022-12-24T22:41:39.205Z,8.20
2022-12-24T22:44:05.941Z,8.20
2022-12-24T22:46:33.100Z,8.30
2022-12-24T22:48:59.822Z,8.20
2022-12-24T22:51:26.514Z,8.20
2022-12-24T22:53:53.190Z,8.20
2022-12-24T22:56:22.419Z,8.10
2022-12-24T22:58:56.718Z,8.00
2022-12-24T23:01:35.155Z,7.90
2022-12-24T23:04:02.479Z,7.70
2022-12-24T23:06:29.514Z,7.70
2022-12-24T23:08:56.306Z,7.60
2022-12-24T23:11:23.680Z,7.40
2022-12-24T23:14:08.888Z,7.40
2022-12-24T23:16:36.005Z,7.20
2022-12-24T23:19:05.081Z,7.10
2022-12-24T23:21:32.066Z,7.10
2022-12-24T23:24:00.418Z,7.10
2022-12-24T23:26:28.490Z,7.10
2022-12-24T23:28:56.132Z,7.10
2022-12-24T23:31:23.699Z,7.10
2022-12-24T23:33:50.625Z,7.10
2022-12-24T23:36:17.604Z,7.20
2022-12-24T23:38:44.325Z,7.20
2022-12-24T23:41:11.826Z,7.30
2022-12-24T23:43:38.874Z,7.30
2022-12-24T23:46:05.843Z,7.30
2022-12-24T23:48:32.647Z,7.40
2022-12-24T23:51:11.383Z,7.40
2022-12-24T23:53:38.341Z,7.50
2022-12-24T23:56:05.992Z,7.50
2022-12-24T23:58:32.806Z,7.50
